Time;durP1;ratioP1;P1;durP2;ratioP2;P2;SDS_P1;SDS_P2;PMS_P1;PMS_P2;Temp;Humidity;BMP_temperature;BMP_pressure;BME280_temperature;BME280_humidity;BME280_pressure;Samples;Min_cycle;Max_cycle;Signal;HPM_P1;HPM_P2
2022/01/16 00:01:03;;;;;;;8.43;2.60;;;;;;;-0.10;56.17;97858.97;5052010;28;20087;-69
2022/01/16 00:06:17;;;;;;;6.75;2.22;;;;;;;-0.15;56.29;97824.84;5046395;28;20048;-69
2022/01/16 00:08:43;;;;;;;10.35;2.65;;;;;;;-0.11;56.44;97835.88;5049456;28;20107;-73
2022/01/16 00:11:09;;;;;;;6.90;2.20;;;;;;;-0.13;56.09;97821.88;5042795;28;20046;-72
2022/01/16 00:13:36;;;;;;;8.10;2.58;;;;;;;-0.15;56.49;97830.22;5048010;28;20049;-70
2022/01/16 00:16:03;;;;;;;7.97;2.30;;;;;;;-0.11;56.30;97825.13;5046581;28;20139;-69
2022/01/16 00:18:41;;;;;;;8.15;2.40;;;;;;;-0.17;56.35;97804.66;5048847;28;20037;-71
2022/01/16 00:21:07;;;;;;;7.13;2.40;;;;;;;-0.18;56.36;97811.88;5045365;28;20080;-69
2022/01/16 00:23:34;;;;;;;8.13;2.45;;;;;;;-0.14;56.22;97812.19;5047388;28;20041;-73
2022/01/16 00:26:00;;;;;;;7.43;2.60;;;;;;;-0.20;56.41;97814.03;5047448;28;20044;-74
2022/01/16 00:28:26;;;;;;;10.50;2.70;;;;;;;-0.24;56.47;97815.59;5041145;28;20528;-73
2022/01/16 00:30:53;;;;;;;7.72;2.42;;;;;;;-0.18;56.40;97813.78;5049767;28;20071;-74
2022/01/16 00:33:19;;;;;;;7.82;2.35;;;;;;;-0.16;56.20;97819.69;5050350;28;20055;-73
2022/01/16 00:35:47;;;;;;;6.93;2.13;;;;;;;-0.13;55.88;97829.94;5049573;28;20052;-73
2022/01/16 00:38:13;;;;;;;7.20;2.25;;;;;;;-0.18;56.09;97846.00;5046967;28;20064;-73
2022/01/16 00:40:39;;;;;;;6.70;2.13;;;;;;;-0.16;56.31;97830.44;5051288;28;20048;-74
2022/01/16 00:43:05;;;;;;;7.80;2.15;;;;;;;-0.13;56.04;97832.63;5044439;28;20068;-74
2022/01/16 00:45:34;;;;;;;7.82;2.10;;;;;;;-0.21;56.19;97822.34;5050663;28;20107;-74
2022/01/16 00:48:01;;;;;;;5.78;2.10;;;;;;;-0.20;56.27;97837.41;5049420;28;20052;-72
2022/01/16 00:50:27;;;;;;;8.13;2.08;;;;;;;-0.17;56.11;97829.63;5050096;28;20156;-73
2022/01/16 00:52:55;;;;;;;7.55;1.90;;;;;;;-0.12;56.04;97852.25;5049563;28;20135;-73
2022/01/16 00:55:21;;;;;;;6.43;2.20;;;;;;;-0.16;56.06;97850.09;5050413;28;20045;-73
2022/01/16 00:57:47;;;;;;;7.30;2.50;;;;;;;-0.20;56.09;97840.09;5048752;28;20229;-72
2022/01/16 01:00:13;;;;;;;6.20;2.10;;;;;;;-0.10;56.08;97858.97;5048243;28;20053;-72
2022/01/16 01:02:39;;;;;;;7.45;2.30;;;;;;;-0.15;56.34;97861.63;5050967;28;20493;-74
2022/01/16 01:05:08;;;;;;;5.93;1.90;;;;;;;-0.03;56.06;97875.72;5049716;28;20079;-73
2022/01/16 01:07:34;;;;;;;7.15;2.05;;;;;;;0.01;55.85;97876.06;5057909;28;20411;-75
2022/01/16 01:10:01;;;;;;;6.55;2.08;;;;;;;-0.03;56.03;97889.16;5045115;28;20045;-75
2022/01/16 01:12:41;;;;;;;4.97;1.80;;;;;;;-0.15;56.36;97883.94;5049948;28;20048;-74
2022/01/16 01:15:09;;;;;;;6.18;2.13;;;;;;;-0.09;56.26;97886.69;5046099;28;20103;-74
2022/01/16 01:17:48;;;;;;;7.45;1.83;;;;;;;-0.07;56.12;97898.81;5048572;28;20504;-74
2022/01/16 01:20:18;;;;;;;5.90;2.10;;;;;;;-0.09;56.10;97908.97;5048554;28;20052;-74
2022/01/16 01:22:45;;;;;;;7.80;2.08;;;;;;;-0.12;56.13;97912.16;5050364;28;20048;-75
2022/01/16 01:25:13;;;;;;;6.60;2.28;;;;;;;-0.13;56.50;97932.03;5045618;28;20037;-74
2022/01/16 01:27:41;;;;;;;7.18;1.95;;;;;;;-0.04;56.20;97924.34;5048815;28;20144;-73
2022/01/16 01:30:10;;;;;;;5.55;1.88;;;;;;;0.02;55.98;97935.97;5043478;28;20106;-71
2022/01/16 01:32:37;;;;;;;7.22;2.08;;;;;;;-0.02;56.08;97927.59;5035037;28;20064;-74
2022/01/16 01:35:05;;;;;;;6.78;2.17;;;;;;;0.06;56.16;97939.75;5043403;28;20041;-72
2022/01/16 01:37:31;;;;;;;5.65;1.90;;;;;;;0.00;55.98;97947.00;5040467;28;20053;-73
2022/01/16 01:39:57;;;;;;;6.65;2.28;;;;;;;0.04;55.90;97958.03;5042541;28;20045;-73
2022/01/16 01:42:32;;;;;;;6.65;2.00;;;;;;;0.04;55.91;97972.28;5047404;28;20052;-72
2022/01/16 01:53:16;;;;;;;5.80;2.05;;;;;;;0.15;54.88;97957.09;5043095;28;20091;-74
2022/01/16 01:55:44;;;;;;;;;;;;;;;0.00;55.32;97973.84;5045246;28;20090;-75
2022/01/16 01:58:14;;;;;;;5.88;1.65;;;;;;;-0.08;55.56;97968.91;5049625;28;19925;-72
2022/01/16 02:00:41;;;;;;;6.97;1.85;;;;;;;-0.05;55.23;97987.22;5044043;28;20379;-74
2022/01/16 02:05:53;;;;;;;6.18;1.80;;;;;;;-0.05;54.96;98004.16;5047274;28;20060;-74
2022/01/16 02:08:19;;;;;;;8.48;2.08;;;;;;;0.02;54.96;98017.41;5046291;28;20037;-75
2022/01/16 02:10:45;;;;;;;6.15;1.98;;;;;;;0.00;54.98;98016.84;5043619;28;20041;-74
2022/01/16 02:13:25;;;;;;;7.03;1.90;;;;;;;-0.06;55.11;98004.41;5046838;28;20057;-75
2022/01/16 02:27:59;;;;;;;6.82;2.17;;;;;;;0.01;54.87;98036.47;5048360;28;20049;-74
2022/01/16 02:34:37;;;;;;;7.53;1.85;;;;;;;-0.11;53.96;97888.81;5052609;28;20544;-74
2022/01/16 02:37:11;;;;;;;8.32;1.95;;;;;;;-0.06;53.79;97956.84;5032277;28;20041;-74
2022/01/16 02:39:41;;;;;;;7.18;2.20;;;;;;;-0.13;54.01;97999.19;5039160;28;20184;-74
2022/01/16 02:42:11;;;;;;;6.88;2.05;;;;;;;-0.19;54.14;98040.50;5049698;28;20447;-74
2022/01/16 02:44:46;;;;;;;5.80;1.85;;;;;;;-0.19;53.87;98053.94;5051988;28;20060;-75
2022/01/16 02:47:19;;;;;;;6.50;2.20;;;;;;;-0.29;54.11;97972.13;5050899;28;20049;-74
2022/01/16 02:49:51;;;;;;;5.07;1.80;;;;;;;-0.19;53.95;97978.72;5043784;28;20302;-75
2022/01/16 02:52:21;;;;;;;7.43;2.10;;;;;;;-0.17;53.66;98011.50;5052198;28;20052;-75
2022/01/16 02:54:53;;;;;;;5.97;2.15;;;;;;;-0.23;53.73;98040.19;5050987;28;20048;-73
2022/01/16 02:57:22;;;;;;;7.00;1.88;;;;;;;-0.10;53.50;98011.34;5049603;28;20128;-75
2022/01/16 02:59:51;;;;;;;4.97;1.50;;;;;;;-0.17;53.08;97981.97;5048575;28;20048;-74
2022/01/16 03:02:20;;;;;;;7.05;2.08;;;;;;;-0.27;53.55;98024.81;5051713;28;20045;-73
2022/01/16 03:04:46;;;;;;;5.78;1.70;;;;;;;-0.32;53.49;98037.09;5052597;28;20048;-73
2022/01/16 03:07:14;;;;;;;5.50;1.90;;;;;;;-0.27;53.44;98038.22;5051249;28;20129;-74
2022/01/16 03:10:02;;;;;;;6.60;1.98;;;;;;;-0.26;53.24;98055.97;5044098;28;20055;-72
2022/01/16 03:12:30;;;;;;;5.57;1.77;;;;;;;-0.34;53.51;98058.03;5043272;28;20094;-74
2022/01/16 03:14:56;;;;;;;6.82;1.98;;;;;;;-0.31;53.21;98049.47;5050424;28;20061;-74
2022/01/16 03:17:36;;;;;;;5.90;1.90;;;;;;;-0.28;53.25;98040.13;5046812;28;20139;-74
2022/01/16 03:22:49;;;;;;;8.65;2.25;;;;;;;-0.23;53.00;98072.41;5034572;28;20049;-74
2022/01/16 03:25:16;;;;;;;6.05;1.98;;;;;;;-0.09;52.33;98072.06;5050434;28;20041;-74
2022/01/16 03:27:44;;;;;;;4.85;1.73;;;;;;;-0.19;52.41;98075.44;5052679;28;20087;-74
2022/01/16 03:30:12;;;;;;;6.13;1.92;;;;;;;-0.28;52.45;98083.09;5051389;28;20041;-72
2022/01/16 03:32:38;;;;;;;6.95;1.88;;;;;;;-0.24;52.27;98084.22;5051855;28;20059;-74
2022/01/16 03:35:05;;;;;;;5.80;1.75;;;;;;;-0.27;52.23;98065.09;5047458;28;20060;-74
2022/01/16 03:37:31;;;;;;;7.82;2.03;;;;;;;-0.35;52.57;98066.31;5051394;28;20048;-73
2022/01/16 03:39:57;;;;;;;5.85;1.98;;;;;;;-0.45;52.97;98091.16;5052315;28;20076;-74
2022/01/16 03:42:28;;;;;;;7.28;2.15;;;;;;;-0.36;52.72;98089.69;5049286;28;20052;-73
2022/01/16 03:44:55;;;;;;;5.95;1.80;;;;;;;-0.40;52.66;98093.13;5055301;28;20103;-73
2022/01/16 03:47:21;;;;;;;4.88;1.75;;;;;;;-0.41;52.77;98103.03;5051226;28;20049;-74
2022/01/16 03:49:47;;;;;;;5.75;1.98;;;;;;;-0.39;52.83;98100.94;5052333;28;20051;-74
2022/01/16 03:52:13;;;;;;;6.53;2.10;;;;;;;-0.35;52.73;98106.59;5051362;28;20049;-73
2022/01/16 03:54:39;;;;;;;6.72;2.05;;;;;;;-0.35;52.83;98110.13;5047057;28;20045;-74
2022/01/16 03:57:06;;;;;;;5.35;1.90;;;;;;;-0.32;52.85;98114.19;5051167;28;20059;-73
2022/01/16 03:59:33;;;;;;;6.90;2.40;;;;;;;-0.39;52.96;98111.69;5049745;28;20045;-73
2022/01/16 04:02:01;;;;;;;6.93;2.15;;;;;;;-0.33;52.68;98104.50;5047966;28;20040;-74
2022/01/16 04:04:27;;;;;;;6.15;2.40;;;;;;;-0.46;52.77;98121.75;5050847;28;20041;-73
2022/01/16 04:06:54;;;;;;;6.20;1.83;;;;;;;-0.40;52.73;98131.50;5047339;28;20040;-75
2022/01/16 04:09:20;;;;;;;5.50;1.85;;;;;;;-0.35;52.63;98126.25;5050694;28;20481;-74
2022/01/16 04:11:56;;;;;;;6.00;1.88;;;;;;;-0.35;52.71;98130.78;5043767;28;20056;-74
2022/01/16 04:17:09;;;;;;;6.72;2.10;;;;;;;-0.37;52.86;98141.78;5051145;28;20405;-74
2022/01/16 04:19:36;;;;;;;5.93;2.08;;;;;;;-0.40;52.84;98131.50;5051645;28;20485;-74
2022/01/16 04:22:03;;;;;;;8.15;2.08;;;;;;;-0.45;52.94;98132.25;5043161;28;20040;-72
2022/01/16 04:24:29;;;;;;;7.88;2.25;;;;;;;-0.37;53.09;98149.84;5050165;28;20438;-74
2022/01/16 04:26:55;;;;;;;6.93;1.83;;;;;;;-0.31;53.03;98148.88;5046083;28;20131;-75
2022/01/16 04:29:21;;;;;;;7.25;2.10;;;;;;;-0.31;52.85;98151.53;5047462;28;20037;-73
2022/01/16 04:31:47;;;;;;;7.63;1.80;;;;;;;-0.33;52.93;98152.84;5051814;28;20081;-74
2022/01/16 04:34:15;;;;;;;7.00;2.30;;;;;;;-0.35;53.03;98155.78;5040536;28;20051;-73
2022/01/16 04:36:41;;;;;;;5.13;1.80;;;;;;;-0.39;52.75;98138.53;5049982;28;20505;-73
2022/01/16 04:39:12;;;;;;;6.07;1.77;;;;;;;-0.25;52.59;98163.19;5043477;28;20046;-74
2022/01/16 04:44:26;;;;;;;5.65;1.90;;;;;;;-0.32;52.68;98167.91;5048290;28;20049;-74
2022/01/16 04:46:52;;;;;;;8.23;2.08;;;;;;;-0.34;52.69;98157.41;5046150;28;20448;-75
2022/01/16 04:49:20;;;;;;;8.73;2.33;;;;;;;-0.45;53.01;98155.59;5046947;28;20087;-75
2022/01/16 04:51:48;;;;;;;4.68;1.50;;;;;;;-0.50;53.29;98161.69;5051597;28;20044;-75
2022/01/16 04:54:14;;;;;;;8.63;2.15;;;;;;;-0.51;53.33;98160.06;5049863;28;20055;-75
2022/01/16 04:56:40;;;;;;;7.60;2.20;;;;;;;-0.45;53.15;98159.13;5047414;28;20041;-74
2022/01/16 04:59:07;;;;;;;7.90;1.97;;;;;;;-0.40;53.16;98168.31;5045138;28;20053;-73
2022/01/16 05:01:33;;;;;;;8.00;2.00;;;;;;;-0.37;53.06;98179.41;5051327;28;20320;-74
2022/01/16 05:03:59;;;;;;;6.17;2.23;;;;;;;-0.37;52.96;98182.06;5050528;28;20095;-75
2022/01/16 05:06:27;;;;;;;6.45;2.03;;;;;;;-0.42;53.12;98187.34;5040258;28;20536;-75
2022/01/16 05:08:53;;;;;;;7.78;1.85;;;;;;;-0.38;53.25;98209.16;5050271;28;20165;-75
2022/01/16 05:11:25;;;;;;;7.97;2.00;;;;;;;-0.36;53.12;98197.13;5049423;28;20045;-75
2022/01/16 05:19:05;;;;;;;4.43;1.60;;;;;;;-0.37;53.14;98197.38;5047302;28;20055;-75
2022/01/16 05:21:32;;;;;;;;;;;;;;;-0.38;53.06;98214.53;5048413;28;20076;-75
2022/01/16 05:23:58;;;;;;;4.68;1.75;;;;;;;-0.46;53.15;98218.44;5043410;28;19928;-75
2022/01/16 05:26:27;;;;;;;7.53;1.95;;;;;;;-0.44;53.15;98205.56;5046633;28;20513;-75
2022/01/16 05:28:55;;;;;;;10.45;2.15;;;;;;;-0.48;53.10;98224.03;5048424;28;20061;-75
2022/01/16 05:31:22;;;;;;;8.65;2.25;;;;;;;-0.51;53.08;98226.41;5050461;28;20102;-75
2022/01/16 05:33:48;;;;;;;6.43;1.80;;;;;;;-0.51;53.08;98234.47;5045997;28;20053;-73
2022/01/16 05:36:14;;;;;;;7.47;1.90;;;;;;;-0.52;52.91;98224.78;5049410;28;20053;-74
2022/01/16 05:38:42;;;;;;;5.13;1.92;;;;;;;-0.52;52.93;98238.22;5046176;28;20033;-73
2022/01/16 05:41:08;;;;;;;4.90;1.60;;;;;;;-0.48;52.84;98256.25;5042051;28;20524;-74
2022/01/16 05:43:34;;;;;;;7.25;2.10;;;;;;;-0.59;52.61;98241.03;5046181;28;20452;-73
2022/01/16 05:46:00;;;;;;;4.75;1.90;;;;;;;-0.57;52.48;98255.03;5048918;28;20037;-74
2022/01/16 05:48:27;;;;;;;5.03;1.67;;;;;;;-0.64;52.46;98240.91;5047489;28;20045;-73
2022/01/16 05:50:54;;;;;;;6.38;1.95;;;;;;;-0.61;52.70;98252.00;5063150;28;20076;-73
2022/01/16 05:53:20;;;;;;;7.32;1.90;;;;;;;-0.56;52.55;98259.34;5044906;28;21710;-74
2022/01/16 05:55:47;;;;;;;6.45;1.70;;;;;;;-0.52;52.31;98273.91;5043232;28;20041;-73
2022/01/16 05:58:14;;;;;;;5.07;1.50;;;;;;;-0.48;52.12;98276.94;5050674;28;20052;-74
2022/01/16 06:00:41;;;;;;;5.35;1.63;;;;;;;-0.51;52.29;98269.38;5048933;28;20041;-73
2022/01/16 06:03:09;;;;;;;5.22;1.70;;;;;;;-0.46;52.08;98288.25;5050835;28;20059;-73
2022/01/16 06:05:36;;;;;;;5.03;1.58;;;;;;;-0.53;52.07;98298.34;5051699;28;20480;-75
2022/01/16 06:08:10;;;;;;;7.22;1.80;;;;;;;-0.62;52.43;98271.84;5044903;28;20045;-75
2022/01/16 06:10:36;;;;;;;4.60;1.52;;;;;;;-0.61;52.57;98286.91;5045120;28;20044;-74
2022/01/16 06:13:05;;;;;;;4.38;1.48;;;;;;;-0.68;53.04;98278.19;5052702;28;20055;-72
2022/01/16 06:15:32;;;;;;;5.57;1.45;;;;;;;-0.59;52.75;98284.00;5049117;28;20060;-73
2022/01/16 06:18:00;;;;;;;5.45;1.63;;;;;;;-0.53;52.59;98290.28;5051595;28;20401;-72
2022/01/16 06:20:26;;;;;;;4.45;1.50;;;;;;;-0.53;52.44;98268.81;5048263;28;20050;-73
2022/01/16 06:22:53;;;;;;;6.45;1.98;;;;;;;-0.60;52.41;98277.00;5035602;28;20049;-73
2022/01/16 06:25:19;;;;;;;5.60;1.42;;;;;;;-0.66;52.36;98275.25;5044984;28;20136;-72
2022/01/16 06:27:46;;;;;;;4.30;1.40;;;;;;;-0.60;52.10;98277.78;5052779;28;20044;-72
2022/01/16 06:30:14;;;;;;;10.85;1.65;;;;;;;-0.57;52.00;98268.47;5051907;28;20055;-74
2022/01/16 06:32:40;;;;;;;;;;;;;;;-0.54;52.04;98267.16;5050000;28;20068;-74
2022/01/16 06:35:07;;;;;;;5.07;1.40;;;;;;;-0.59;51.84;98268.69;5053129;28;19972;-72
2022/01/16 06:37:34;;;;;;;3.72;1.23;;;;;;;-0.60;51.85;98279.69;5054639;28;20044;-73
2022/01/16 06:40:01;;;;;;;5.65;1.50;;;;;;;-0.56;51.64;98275.44;5053621;28;20106;-74
2022/01/16 06:42:29;;;;;;;4.07;1.42;;;;;;;-0.60;51.71;98283.16;5046480;28;20041;-73
2022/01/16 06:44:55;;;;;;;3.22;1.33;;;;;;;-0.53;51.67;98282.22;5051631;28;20095;-73
2022/01/16 06:47:23;;;;;;;7.25;1.92;;;;;;;-0.57;51.78;98271.94;5050922;28;20045;-74
2022/01/16 06:49:49;;;;;;;5.40;1.60;;;;;;;-0.60;51.74;98283.16;5027718;28;20049;-74
2022/01/16 06:52:15;;;;;;;3.95;1.45;;;;;;;-0.54;51.65;98281.41;5048957;28;20044;-73
2022/01/16 06:54:42;;;;;;;5.60;1.60;;;;;;;-0.57;51.53;98284.56;5052582;28;20249;-73
2022/01/16 06:57:08;;;;;;;6.88;1.88;;;;;;;-0.57;51.61;98288.06;5047245;28;20063;-73
2022/01/16 06:59:38;;;;;;;8.60;1.75;;;;;;;-0.65;51.76;98291.13;5053505;28;20045;-71
2022/01/16 07:02:04;;;;;;;6.05;1.85;;;;;;;-0.68;51.69;98286.25;5048274;28;20107;-74
2022/01/16 07:04:41;;;;;;;7.30;2.40;;;;;;;-0.59;51.75;98298.22;5037842;28;20061;-76
2022/01/16 07:07:13;;;;;;;5.82;1.77;;;;;;;-0.51;51.52;98302.41;5016824;28;20050;-74
2022/01/16 07:09:40;;;;;;;6.18;1.80;;;;;;;-0.50;51.58;98306.72;5046540;28;20468;-72
2022/01/16 07:12:08;;;;;;;6.95;1.92;;;;;;;-0.47;51.61;98314.31;5064701;28;20076;-73
2022/01/16 07:14:34;;;;;;;5.28;1.58;;;;;;;-0.48;51.55;98317.22;5054892;28;20053;-73
2022/01/16 07:17:00;;;;;;;5.57;1.80;;;;;;;-0.49;51.57;98312.91;5044216;28;20067;-73
2022/01/16 07:19:26;;;;;;;4.43;1.70;;;;;;;-0.50;51.71;98320.13;5053491;28;20513;-73
2022/01/16 07:21:54;;;;;;;5.57;1.75;;;;;;;-0.44;51.68;98316.50;5052988;28;20141;-72
2022/01/16 07:24:21;;;;;;;5.57;1.90;;;;;;;-0.41;51.65;98325.16;5041948;28;20045;-73
2022/01/16 07:26:47;;;;;;;7.55;1.73;;;;;;;-0.43;51.49;98326.19;5062311;28;20041;-74
2022/01/16 07:29:14;;;;;;;7.97;2.07;;;;;;;-0.38;51.50;98333.56;5047095;28;20053;-72
2022/01/16 07:31:40;;;;;;;5.28;1.98;;;;;;;-0.40;51.54;98308.78;5050467;28;20037;-75
2022/01/16 07:34:07;;;;;;;6.85;1.98;;;;;;;-0.46;51.60;98318.63;5046294;28;20059;-73
2022/01/16 07:36:34;;;;;;;7.43;2.13;;;;;;;-0.39;51.53;98321.19;5030186;28;20488;-74
2022/01/16 07:39:02;;;;;;;6.05;1.98;;;;;;;-0.42;51.58;98318.94;5049426;28;20410;-73
2022/01/16 07:41:29;;;;;;;6.20;1.88;;;;;;;-0.43;51.58;98320.00;5034268;28;20402;-74
2022/01/16 07:43:56;;;;;;;4.97;1.60;;;;;;;-0.37;51.59;98327.13;5053753;28;20037;-73
2022/01/16 07:46:22;;;;;;;7.40;1.80;;;;;;;-0.36;51.52;98330.59;5050145;28;20057;-73
2022/01/16 07:48:48;;;;;;;16.10;1.88;;;;;;;-0.31;51.32;98334.22;5042242;28;20049;-73
2022/01/16 07:51:15;;;;;;;5.90;1.55;;;;;;;-0.34;51.31;98340.06;5040725;28;20053;-72
2022/01/16 07:53:41;;;;;;;9.60;2.85;;;;;;;-0.41;51.52;98330.53;5045397;28;20049;-73
2022/01/16 07:56:08;;;;;;;11.00;3.08;;;;;;;-0.38;51.55;98330.88;5048096;28;20045;-73
2022/01/16 07:58:36;;;;;;;9.70;2.92;;;;;;;-0.35;51.55;98334.91;5046997;28;20091;-72
2022/01/16 08:01:03;;;;;;;12.93;3.00;;;;;;;-0.29;51.63;98339.34;5049689;28;20065;-72
2022/01/16 08:03:29;;;;;;;9.57;2.78;;;;;;;-0.31;51.57;98336.09;5045820;28;20106;-72
2022/01/16 08:05:55;;;;;;;8.98;2.47;;;;;;;-0.26;51.62;98341.56;5042252;28;20045;-72
2022/01/16 08:08:21;;;;;;;10.70;2.38;;;;;;;-0.37;51.72;98328.97;5036464;28;20056;-72
2022/01/16 08:10:47;;;;;;;6.90;2.13;;;;;;;-0.19;51.71;98346.78;5047161;28;20059;-72
2022/01/16 08:13:15;;;;;;;11.20;2.60;;;;;;;-0.20;51.55;98347.84;5037524;28;20500;-72
2022/01/16 08:15:43;;;;;;;7.25;2.67;;;;;;;-0.15;51.43;98351.44;5050066;28;20636;-73
2022/01/16 08:18:10;;;;;;;8.40;2.30;;;;;;;-0.21;51.27;98349.69;5043563;28;20071;-74
2022/01/16 08:20:36;;;;;;;9.57;2.30;;;;;;;-0.33;51.65;98351.63;5050494;28;20151;-74
2022/01/16 08:23:02;;;;;;;10.07;2.35;;;;;;;-0.29;51.30;98353.59;5048779;28;20045;-72
2022/01/16 08:25:30;;;;;;;9.40;1.83;;;;;;;-0.19;51.24;98363.72;5052014;28;20077;-72
2022/01/16 08:27:57;;;;;;;6.40;1.88;;;;;;;-0.11;51.01;98359.81;5046262;28;20052;-71
2022/01/16 08:30:25;;;;;;;7.03;1.85;;;;;;;-0.07;51.08;98352.09;5040387;28;20402;-74
2022/01/16 08:32:52;;;;;;;10.25;1.88;;;;;;;-0.10;50.75;98337.28;5039775;28;20102;-73
2022/01/16 08:35:18;;;;;;;7.97;2.00;;;;;;;-0.12;51.06;98343.97;5049818;28;20045;-74
2022/01/16 08:37:44;;;;;;;4.32;1.63;;;;;;;-0.12;50.81;98325.16;5048839;28;20150;-75
2022/01/16 08:40:13;;;;;;;5.80;1.92;;;;;;;0.01;50.65;98340.97;5047557;28;20497;-72
2022/01/16 08:42:40;;;;;;;6.10;1.83;;;;;;;0.02;50.68;98325.66;5051190;28;20041;-74
2022/01/16 08:45:07;;;;;;;7.78;2.15;;;;;;;0.09;50.59;98326.34;5046680;28;20048;-73
2022/01/16 08:47:35;;;;;;;6.32;1.80;;;;;;;0.07;50.42;98336.50;5049377;28;20056;-73
2022/01/16 08:50:03;;;;;;;10.65;2.00;;;;;;;0.24;50.17;98339.22;5042767;28;20092;-74
2022/01/16 08:52:29;;;;;;;5.90;1.50;;;;;;;0.31;49.64;98339.06;5049998;28;20052;-73
2022/01/16 08:54:55;;;;;;;8.63;1.85;;;;;;;0.38;49.49;98342.38;5048396;28;20071;-71
2022/01/16 08:57:21;;;;;;;9.85;2.00;;;;;;;0.23;49.39;98354.50;5051231;28;20045;-71
2022/01/16 08:59:48;;;;;;;4.82;1.55;;;;;;;0.20;49.68;98373.03;5030973;28;20147;-72
2022/01/16 09:02:14;;;;;;;4.93;1.73;;;;;;;0.28;49.75;98378.00;5049571;28;20513;-72
2022/01/16 09:04:42;;;;;;;8.77;2.42;;;;;;;0.30;49.53;98364.31;5044388;28;20248;-72
2022/01/16 09:07:10;;;;;;;11.52;2.78;;;;;;;0.21;49.79;98361.22;5048299;28;20419;-73
2022/01/16 09:09:37;;;;;;;8.98;2.30;;;;;;;0.16;49.75;98351.19;5049434;28;20053;-73
2022/01/16 09:12:03;;;;;;;6.60;2.10;;;;;;;0.27;49.63;98352.16;5049262;28;20060;-72
2022/01/16 09:14:31;;;;;;;9.80;2.67;;;;;;;0.32;49.71;98364.88;5042401;28;20386;-73
2022/01/16 09:16:57;;;;;;;7.93;2.03;;;;;;;0.47;49.38;98372.38;5044168;28;20053;-73
2022/01/16 09:19:23;;;;;;;8.27;2.55;;;;;;;0.52;49.20;98361.72;5041637;28;20049;-72
2022/01/16 09:21:50;;;;;;;12.40;3.50;;;;;;;0.46;49.35;98352.75;5049083;28;20406;-72
2022/01/16 09:24:17;;;;;;;7.30;2.00;;;;;;;0.49;49.52;98357.66;5046666;28;20056;-72
2022/01/16 09:26:42;;;;;;;13.15;3.83;;;;;;;0.58;49.20;98357.25;5034317;28;20045;-73
2022/01/16 09:29:09;;;;;;;6.07;1.70;;;;;;;0.94;48.48;98361.31;5036830;28;20045;-72
2022/01/16 09:31:35;;;;;;;7.55;2.05;;;;;;;1.03;47.82;98344.72;5049668;28;20481;-72
2022/01/16 09:34:02;;;;;;;9.02;2.42;;;;;;;1.11;48.10;98357.78;5059473;28;20114;-72
2022/01/16 09:36:30;;;;;;;6.57;1.77;;;;;;;1.18;47.69;98352.22;5068527;28;20045;-73
2022/01/16 09:38:58;;;;;;;8.02;2.17;;;;;;;1.16;47.80;98363.22;5052657;28;20052;-73
2022/01/16 09:41:24;;;;;;;8.52;2.13;;;;;;;2.18;46.21;98361.97;5054766;28;20052;-73
2022/01/16 09:43:51;;;;;;;11.40;3.27;;;;;;;2.36;45.51;98322.22;5055232;28;20080;-72
2022/01/16 09:46:17;;;;;;;11.13;3.30;;;;;;;3.33;44.80;98348.25;5054232;28;20044;-74
2022/01/16 09:48:43;;;;;;;12.68;3.38;;;;;;;3.76;44.17;98339.22;5050384;28;20543;-74
2022/01/16 09:51:10;;;;;;;11.00;3.42;;;;;;;4.10;43.59;98341.47;5039209;28;20049;-73
2022/01/16 09:53:36;;;;;;;13.93;3.55;;;;;;;4.78;42.70;98317.94;5036582;28;20053;-73
2022/01/16 09:56:04;;;;;;;12.88;3.85;;;;;;;5.62;41.39;98322.88;5054440;28;20055;-68
2022/01/16 09:58:30;;;;;;;14.77;4.15;;;;;;;5.99;40.45;98337.06;5033929;28;20078;-70
2022/01/16 10:00:56;;;;;;;13.32;3.53;;;;;;;6.17;40.39;98337.50;5053865;28;20045;-68
2022/01/16 10:03:34;;;;;;;10.88;2.97;;;;;;;6.30;40.25;98331.47;5052605;28;20048;-68
2022/01/16 10:06:10;;;;;;;8.77;2.78;;;;;;;6.39;40.06;98340.59;5052520;28;20052;-70
2022/01/16 10:08:37;;;;;;;9.48;2.50;;;;;;;6.57;39.67;98329.34;5045204;28;20045;-70
2022/01/16 10:14:08;;;;;;;9.93;2.38;;;;;;;7.72;37.39;98333.31;5142048;27;20921;-70
2022/01/16 10:16:37;;;;;;;6.82;2.35;;;;;;;8.35;36.09;98319.66;5097970;28;20052;-71
2022/01/16 10:19:05;;;;;;;9.73;2.92;;;;;;;8.38;36.06;98319.88;5108963;28;20453;-71
2022/01/16 10:21:35;;;;;;;;;;;;;;;8.82;35.04;98330.66;5109411;28;20067;-71
2022/01/16 10:24:19;;;;;;;8.27;3.28;;;;;;;8.63;35.53;98325.22;5108583;28;20315;-71
2022/01/16 10:26:46;;;;;;;8.52;2.75;;;;;;;8.46;35.75;98323.84;5091996;28;20051;-70
2022/01/16 10:29:18;;;;;;;;;;;;;;;7.79;35.24;98317.44;5107768;28;20106;-70
2022/01/16 10:31:49;;;;;;;7.40;2.45;;;;;;;6.86;37.14;98325.84;5108877;28;20334;-69
2022/01/16 10:34:32;;;;;;;6.82;2.35;;;;;;;6.19;38.10;98333.44;5102985;28;20078;-68
2022/01/16 10:36:59;;;;;;;8.43;2.92;;;;;;;5.63;38.88;98339.97;5103612;28;20052;-70
2022/01/16 10:39:25;;;;;;;;;;;;;;;5.25;39.54;98327.59;5092095;28;20048;-69
2022/01/16 10:42:15;;;;;;;8.88;2.83;;;;;;;4.80;40.31;98326.59;5087532;28;20020;-70
2022/01/16 10:44:43;;;;;;;7.03;2.35;;;;;;;4.44;40.79;98322.00;5101591;28;20039;-70
2022/01/16 10:47:28;;;;;;;9.90;2.50;;;;;;;4.30;40.97;98329.88;5100341;28;20116;-68
2022/01/16 10:50:09;;;;;;;8.43;2.60;;;;;;;3.99;41.80;98323.63;5096818;28;20051;-70
2022/01/16 10:52:48;;;;;;;7.95;2.63;;;;;;;3.73;42.28;98312.72;5084929;28;20443;-68
2022/01/16 10:55:14;;;;;;;9.75;3.10;;;;;;;3.37;43.04;98313.41;5093125;28;20135;-70
2022/01/16 10:57:41;;;;;;;13.07;2.92;;;;;;;3.30;43.41;98332.56;5096215;28;20041;-69
2022/01/16 11:00:12;;;;;;;9.52;3.05;;;;;;;3.16;43.58;98321.41;5099049;28;20131;-69
2022/01/16 11:02:40;;;;;;;9.05;2.80;;;;;;;3.00;44.27;98339.41;5094195;28;20048;-68
2022/01/16 11:05:09;;;;;;;10.65;3.22;;;;;;;2.98;44.15;98320.78;5095768;28;20052;-68
2022/01/16 11:07:38;;;;;;;9.40;2.90;;;;;;;2.83;44.34;98299.09;5100308;28;20139;-68
2022/01/16 11:10:23;;;;;;;8.68;2.70;;;;;;;2.84;44.63;98335.81;5098744;28;20048;-67
2022/01/16 11:12:50;;;;;;;11.55;3.10;;;;;;;2.64;45.15;98336.47;5087485;28;20409;-68
2022/01/16 11:15:18;;;;;;;10.30;2.63;;;;;;;2.51;45.47;98337.75;5101790;28;20166;-70
2022/01/16 11:17:44;;;;;;;9.77;3.10;;;;;;;2.44;45.92;98337.13;5087210;28;20094;-68
2022/01/16 11:20:11;;;;;;;8.23;2.85;;;;;;;2.52;46.18;98336.66;5093741;28;20052;-68
2022/01/16 11:22:57;;;;;;;12.90;3.13;;;;;;;2.59;45.63;98350.75;5081529;28;20131;-69
2022/01/16 11:25:31;;;;;;;8.23;3.05;;;;;;;2.63;45.80;98351.84;5083633;28;20050;-69
2022/01/16 11:28:00;;;;;;;10.32;3.05;;;;;;;2.50;46.02;98336.13;5081675;28;20036;-69
2022/01/16 11:30:28;;;;;;;10.70;3.53;;;;;;;2.43;46.20;98357.09;5078710;28;20039;-68
2022/01/16 11:32:56;;;;;;;9.02;3.03;;;;;;;2.33;46.38;98353.22;5081849;28;20118;-69
2022/01/16 11:35:29;;;;;;;;;;;;;;;2.24;46.49;98368.25;5083340;28;20052;-69
2022/01/16 11:37:58;;;;;;;9.40;3.25;;;;;;;2.09;46.76;98361.63;5081271;28;19967;-70
2022/01/16 11:40:30;;;;;;;10.25;3.85;;;;;;;2.11;46.74;98362.19;5081681;28;20513;-68
2022/01/16 11:43:22;;;;;;;10.60;3.22;;;;;;;2.06;46.73;98372.94;5089582;28;20055;-69
2022/01/16 11:46:02;;;;;;;13.10;3.53;;;;;;;2.06;46.84;98385.59;5081909;28;20052;-70
2022/01/16 11:48:47;;;;;;;10.98;3.53;;;;;;;1.78;47.58;98380.16;5087554;28;20507;-69
2022/01/16 11:51:51;;;;;;;10.80;3.78;;;;;;;1.58;47.73;98372.66;5064873;28;20043;-68
2022/01/16 11:54:23;;;;;;;15.70;4.47;;;;;;;1.49;47.91;98366.88;5080170;28;20044;-77
2022/01/16 11:56:58;;;;;;;12.23;4.15;;;;;;;1.47;47.88;98368.19;5081173;28;20051;-75
2022/01/16 11:59:37;;;;;;;14.95;4.55;;;;;;;1.54;47.67;98361.56;5092146;28;20048;-76
2022/01/16 12:02:26;;;;;;;10.88;3.78;;;;;;;1.58;47.36;98361.06;5091002;28;20059;-72
2022/01/16 12:05:02;;;;;;;10.82;3.60;;;;;;;1.57;47.12;98354.84;5089423;28;20056;-73
2022/01/16 12:07:51;;;;;;;9.68;3.67;;;;;;;1.59;46.97;98349.22;5086364;28;20101;-75
2022/01/16 12:10:54;;;;;;;9.30;3.20;;;;;;;1.50;46.78;98348.84;5081422;28;20056;-73
2022/01/16 12:13:50;;;;;;;12.38;2.65;;;;;;;1.41;47.02;98346.59;5074571;28;20082;-73
2022/01/16 12:16:46;;;;;;;8.95;2.72;;;;;;;1.46;47.09;98337.75;5084823;28;20044;-73
2022/01/16 12:19:42;;;;;;;11.98;3.17;;;;;;;1.45;46.91;98349.59;5080132;28;20097;-74
2022/01/16 12:22:14;;;;;;;11.52;3.78;;;;;;;1.36;47.07;98338.44;5093273;28;20523;-73
2022/01/16 12:24:43;;;;;;;12.07;3.38;;;;;;;1.32;47.43;98348.06;5077802;28;20078;-74
2022/01/16 12:27:25;;;;;;;13.70;4.15;;;;;;;1.35;47.46;98344.91;5082536;28;20134;-74
2022/01/16 12:30:34;;;;;;;15.45;4.45;;;;;;;1.46;47.46;98342.31;5076158;28;20111;-73
2022/01/16 12:33:09;;;;;;;17.08;4.90;;;;;;;1.57;47.23;98345.97;5075020;28;20474;-74